< < Back
Terminal Aerodrome Forecast


Current Version              Previous Versions:   1  2  3  4  5  6  7  8  9  

Terminal Aerodrome Forecast

443
FTUS44 KBMX 230500
TAFANB
TAF
KANB 230520Z 2306/2406 36003KT P6SM SKC=



Latest METAR

822
SAUS70 KWBC 231800 RRF
MTRANB
METAR KANB 231753Z AUTO VRB03KT 10SM CLR 20/06 A3010 RMK AO2 SLP194
T02000056 10206 20056 58023


USA.gov is the U.S. government's official web portal to all federal, state and local government web resources and services.